Fittstown, OK

10:52 AM CDT on August 22, 2014 (GMT -0500)
Ada Municipal | Change Station
CLOSE
Current Station
Airport
Location: Ada,
Elevation: 1017 ft
Nearby Weather Stations

Elev 1017 ft 34.80 °N, 96.67 °W | Updated 17 minutes ago

Clear
Clear
86 °F
Feels Like 95 °F
N
13
Wind Variable Wind from SW

Today
High -- | Low -- °F
--% Chance of Precip.
Yesterday
High -- | Low -- °F
Precip. -- in
6:52 AM 8:06 PM
Waning Crescent, 8% visible
Pressure 30.04 in
Visibility 10.0 miles
Clouds Clear
Heat Index 95 °F
Dew Point 75 °F
Humidity 70%
Rainfall 0.00 in
Snow Depth Not available.
UV 6 out of 12
Pollen 9.90 out of 12
Air Quality Not available.
Flu Activity Not available.
METAR KADH 221535Z AUTO 22011KT 10SM CLR 30/24 A3004 RMK AO2

More Conditions Fewer Conditions

Pressure 30.04 in
Visibility 10.0 miles
Clouds Clear
Heat Index 95 °F
Dew Point 75 °F
Humidity 70%
Rainfall 0.00 in
Snow Depth Not available.
UV 6 out of 12
Pollen 9.90 out of 12
Air Quality Not available.
Flu Activity Not available.
METAR KADH 221535Z AUTO 22011KT 10SM CLR 30/24 A3004 RMK AO2

More Conditions Fewer Conditions

10-Day Weather Forecast

Almanac

Astronomy

Aug. 22, 2014 Rise Set
Actual Time 6:52 AM CDT 8:06 PM CDT
Civil Twilight 6:26 AM CDT 8:32 PM CDT
Nautical Twilight 5:54 AM CDT 9:03 PM CDT
Astronomical Twilight 5:22 AM CDT 9:35 PM CDT
Moon 4:19 AM CDT 6:13 PM CDT
Length of Visible Light 14h 05m
Length of Day
13h 13m
Tomorrow will be 1m 59s shorter.
Waning Crescent, 8% of the Moon is Illuminated
Today
Waning Crescent
Aug 25
New
Sep 2
First Quarter
Sep 8
Full
Sep 15
Last Quarter

Today's Extremes

State Highs State Lows

Community

WunderPhotos

Upload Photos

1,746,188 photos uploaded!

Nearby

Snow Depth

Station Depth Elevation
No new snow has been reported.

Earthquake Activity

City Distance Mag. Time & Date
Boley, Oklahoma 52 miles 3.4 9:50 PM CDT
2014-08-17
Perry, Oklahoma 118 miles 3.0 8:43 AM CDT
2014-08-17
Minimum magnitude displayed is 2.5.

Coastal Water Temperatures

Place Temperature
No Stations Reporting

Nearby Weather Stations